sensor_id;sensor_type;location;lat;lon;timestamp;pressure;altitude;pressure_sealevel;temperature;humidity
4981;BME280;2507;50.392;7.482;2022-12-11T00:00:33;100417.75;;;0.69;73.60
4981;BME280;2507;50.392;7.482;2022-12-11T00:02:58;100419.13;;;0.79;72.43
4981;BME280;2507;50.392;7.482;2022-12-11T00:05:23;100416.63;;;0.76;72.63
4981;BME280;2507;50.392;7.482;2022-12-11T00:07:49;100418.41;;;0.76;72.92
4981;BME280;2507;50.392;7.482;2022-12-11T00:10:14;100418.41;;;0.76;72.74
4981;BME280;2507;50.392;7.482;2022-12-11T00:12:39;100409.09;;;0.95;72.30
4981;BME280;2507;50.392;7.482;2022-12-11T00:15:05;100417.59;;;0.98;72.50
4981;BME280;2507;50.392;7.482;2022-12-11T00:17:30;100423.28;;;1.08;72.11
4981;BME280;2507;50.392;7.482;2022-12-11T00:19:55;100421.31;;;1.15;71.83
4981;BME280;2507;50.392;7.482;2022-12-11T00:22:21;100421.22;;;1.18;71.82
4981;BME280;2507;50.392;7.482;2022-12-11T00:24:46;100415.47;;;1.10;71.58
4981;BME280;2507;50.392;7.482;2022-12-11T00:27:11;100414.66;;;1.09;72.00
4981;BME280;2507;50.392;7.482;2022-12-11T00:29:37;100416.66;;;1.24;71.31
4981;BME280;2507;50.392;7.482;2022-12-11T00:32:02;100409.59;;;1.29;71.15
4981;BME280;2507;50.392;7.482;2022-12-11T00:34:27;100413.41;;;1.19;71.40
4981;BME280;2507;50.392;7.482;2022-12-11T00:36:52;100407.50;;;1.16;71.67
4981;BME280;2507;50.392;7.482;2022-12-11T00:39:18;100399.91;;;1.11;71.71
4981;BME280;2507;50.392;7.482;2022-12-11T00:41:43;100407.72;;;1.10;71.84
4981;BME280;2507;50.392;7.482;2022-12-11T00:44:08;100400.56;;;1.18;71.97
4981;BME280;2507;50.392;7.482;2022-12-11T00:46:34;100401.50;;;1.15;71.71
4981;BME280;2507;50.392;7.482;2022-12-11T00:48:59;100400.81;;;1.10;71.32
4981;BME280;2507;50.392;7.482;2022-12-11T00:51:24;100403.53;;;1.07;72.11
4981;BME280;2507;50.392;7.482;2022-12-11T00:53:50;100410.50;;;1.05;71.54
4981;BME280;2507;50.392;7.482;2022-12-11T00:56:19;100409.63;;;1.04;72.13
4981;BME280;2507;50.392;7.482;2022-12-11T00:58:45;100403.88;;;0.96;72.15
4981;BME280;2507;50.392;7.482;2022-12-11T01:01:16;100405.19;;;1.08;72.09
4981;BME280;2507;50.392;7.482;2022-12-11T01:03:42;100408.63;;;1.09;71.54
4981;BME280;2507;50.392;7.482;2022-12-11T01:06:12;100404.47;;;1.04;71.84
4981;BME280;2507;50.392;7.482;2022-12-11T01:08:38;100409.75;;;1.01;72.15
4981;BME280;2507;50.392;7.482;2022-12-11T01:11:05;100413.22;;;1.00;72.39
4981;BME280;2507;50.392;7.482;2022-12-11T01:13:31;100410.25;;;1.11;72.86
4981;BME280;2507;50.392;7.482;2022-12-11T01:15:56;100420.84;;;1.28;72.39
4981;BME280;2507;50.392;7.482;2022-12-11T01:18:22;100416.28;;;1.35;71.79
4981;BME280;2507;50.392;7.482;2022-12-11T01:20:47;100410.44;;;1.53;71.29
4981;BME280;2507;50.392;7.482;2022-12-11T01:23:13;100405.72;;;1.64;71.33
4981;BME280;2507;50.392;7.482;2022-12-11T01:25:39;100412.13;;;1.54;70.09
4981;BME280;2507;50.392;7.482;2022-12-11T01:28:05;100427.97;;;1.45;71.17
4981;BME280;2507;50.392;7.482;2022-12-11T01:30:31;100404.09;;;1.38;70.93
4981;BME280;2507;50.392;7.482;2022-12-11T01:32:56;100398.31;;;1.32;71.31
4981;BME280;2507;50.392;7.482;2022-12-11T01:35:21;100401.69;;;1.34;71.84
4981;BME280;2507;50.392;7.482;2022-12-11T01:37:47;100393.34;;;1.26;71.67
4981;BME280;2507;50.392;7.482;2022-12-11T01:40:15;100396.19;;;1.20;71.91
4981;BME280;2507;50.392;7.482;2022-12-11T01:42:41;100395.91;;;1.27;71.95
4981;BME280;2507;50.392;7.482;2022-12-11T01:47:54;100405.59;;;1.21;71.90
4981;BME280;2507;50.392;7.482;2022-12-11T01:50:21;100401.06;;;1.27;72.45
4981;BME280;2507;50.392;7.482;2022-12-11T01:52:48;100405.66;;;1.42;72.18
4981;BME280;2507;50.392;7.482;2022-12-11T01:55:14;100403.06;;;1.42;71.88
4981;BME280;2507;50.392;7.482;2022-12-11T01:57:41;100401.22;;;1.46;71.92
4981;BME280;2507;50.392;7.482;2022-12-11T02:00:08;100392.91;;;1.61;72.19
4981;BME280;2507;50.392;7.482;2022-12-11T02:02:33;100402.00;;;1.71;71.86
4981;BME280;2507;50.392;7.482;2022-12-11T02:05:01;100391.78;;;1.89;71.28
4981;BME280;2507;50.392;7.482;2022-12-11T02:07:29;100391.31;;;2.01;70.51
4981;BME280;2507;50.392;7.482;2022-12-11T02:09:57;100393.66;;;2.07;69.45
4981;BME280;2507;50.392;7.482;2022-12-11T02:12:45;100388.31;;;2.12;69.01
4981;BME280;2507;50.392;7.482;2022-12-11T02:17:51;100397.81;;;1.90;69.09
4981;BME280;2507;50.392;7.482;2022-12-11T02:20:26;100395.50;;;1.82;69.39
4981;BME280;2507;50.392;7.482;2022-12-11T02:23:08;100386.19;;;1.78;70.23
4981;BME280;2507;50.392;7.482;2022-12-11T02:28:33;100399.09;;;1.78;70.51
4981;BME280;2507;50.392;7.482;2022-12-11T02:31:04;100415.94;;;1.67;70.53
4981;BME280;2507;50.392;7.482;2022-12-11T02:33:42;100400.66;;;1.61;69.93
4981;BME280;2507;50.392;7.482;2022-12-11T02:36:09;100403.53;;;1.53;70.46
4981;BME280;2507;50.392;7.482;2022-12-11T02:38:38;100403.78;;;1.47;70.41
4981;BME280;2507;50.392;7.482;2022-12-11T02:41:06;100399.44;;;1.48;70.59
4981;BME280;2507;50.392;7.482;2022-12-11T02:43:34;100398.53;;;1.49;70.71
4981;BME280;2507;50.392;7.482;2022-12-11T02:46:03;100393.41;;;1.70;71.11
4981;BME280;2507;50.392;7.482;2022-12-11T02:48:31;100389.50;;;1.82;70.32
4981;BME280;2507;50.392;7.482;2022-12-11T02:50:58;100386.53;;;1.91;70.24
4981;BME280;2507;50.392;7.482;2022-12-11T02:53:27;100389.44;;;2.05;69.87
4981;BME280;2507;50.392;7.482;2022-12-11T02:56:05;100392.03;;;2.05;69.70
4981;BME280;2507;50.392;7.482;2022-12-11T02:58:33;100392.41;;;1.96;69.35
4981;BME280;2507;50.392;7.482;2022-12-11T03:01:00;100389.38;;;1.85;70.41
4981;BME280;2507;50.392;7.482;2022-12-11T03:03:28;100381.94;;;1.99;70.81
4981;BME280;2507;50.392;7.482;2022-12-11T03:05:54;100387.22;;;2.18;70.26
4981;BME280;2507;50.392;7.482;2022-12-11T03:08:20;100388.59;;;2.26;70.09
4981;BME280;2507;50.392;7.482;2022-12-11T03:10:45;100382.03;;;2.18;69.23
4981;BME280;2507;50.392;7.482;2022-12-11T03:13:12;100388.47;;;2.07;69.65
4981;BME280;2507;50.392;7.482;2022-12-11T03:18:35;100382.22;;;2.13;70.07
4981;BME280;2507;50.392;7.482;2022-12-11T03:21:23;100386.06;;;2.25;69.59
4981;BME280;2507;50.392;7.482;2022-12-11T03:24:09;100390.00;;;2.33;69.24
4981;BME280;2507;50.392;7.482;2022-12-11T03:26:42;100382.22;;;2.13;69.03
4981;BME280;2507;50.392;7.482;2022-12-11T03:29:16;100380.84;;;2.04;70.34
4981;BME280;2507;50.392;7.482;2022-12-11T03:31:49;100380.53;;;2.12;70.00
4981;BME280;2507;50.392;7.482;2022-12-11T03:34:22;100386.38;;;2.17;69.54
4981;BME280;2507;50.392;7.482;2022-12-11T03:36:50;100384.69;;;2.16;69.25
4981;BME280;2507;50.392;7.482;2022-12-11T03:39:21;100384.88;;;1.90;70.21
4981;BME280;2507;50.392;7.482;2022-12-11T03:41:49;100387.22;;;1.96;70.66
4981;BME280;2507;50.392;7.482;2022-12-11T03:44:17;100364.94;;;2.14;70.46
4981;BME280;2507;50.392;7.482;2022-12-11T03:46:45;100382.53;;;2.27;70.19
4981;BME280;2507;50.392;7.482;2022-12-11T03:49:15;100375.84;;;2.22;69.46
4981;BME280;2507;50.392;7.482;2022-12-11T03:51:43;100391.88;;;2.30;69.56
4981;BME280;2507;50.392;7.482;2022-12-11T03:54:11;100368.78;;;2.25;69.32
4981;BME280;2507;50.392;7.482;2022-12-11T03:56:37;100379.16;;;2.25;69.51
4981;BME280;2507;50.392;7.482;2022-12-11T03:59:03;100373.91;;;2.27;69.34
4981;BME280;2507;50.392;7.482;2022-12-11T04:01:29;100366.63;;;2.15;69.46
4981;BME280;2507;50.392;7.482;2022-12-11T04:03:54;100374.53;;;1.90;69.85
4981;BME280;2507;50.392;7.482;2022-12-11T04:06:19;100368.41;;;1.92;70.01
4981;BME280;2507;50.392;7.482;2022-12-11T04:08:45;100371.44;;;1.80;69.87
4981;BME280;2507;50.392;7.482;2022-12-11T04:11:10;100367.41;;;1.52;71.63
4981;BME280;2507;50.392;7.482;2022-12-11T04:13:54;100363.75;;;1.57;71.67
4981;BME280;2507;50.392;7.482;2022-12-11T04:16:37;100371.03;;;1.69;71.50
4981;BME280;2507;50.392;7.482;2022-12-11T04:19:03;100361.91;;;1.38;72.93
4981;BME280;2507;50.392;7.482;2022-12-11T04:21:47;100365.50;;;1.34;73.48
4981;BME280;2507;50.392;7.482;2022-12-11T04:24:32;100365.50;;;1.34;74.34
4981;BME280;2507;50.392;7.482;2022-12-11T04:26:57;100358.63;;;1.56;73.92
4981;BME280;2507;50.392;7.482;2022-12-11T04:29:22;100368.78;;;1.82;73.65
4981;BME280;2507;50.392;7.482;2022-12-11T04:31:48;100365.91;;;1.89;72.13
4981;BME280;2507;50.392;7.482;2022-12-11T04:34:14;100383.22;;;1.87;72.72
4981;BME280;2507;50.392;7.482;2022-12-11T04:36:40;100375.31;;;1.92;72.05
4981;BME280;2507;50.392;7.482;2022-12-11T04:39:05;100383.00;;;1.93;72.15
4981;BME280;2507;50.392;7.482;2022-12-11T04:41:30;100364.22;;;2.10;72.01
4981;BME280;2507;50.392;7.482;2022-12-11T04:43:56;100369.28;;;2.13;71.20
4981;BME280;2507;50.392;7.482;2022-12-11T04:46:23;100374.53;;;1.90;70.94
4981;BME280;2507;50.392;7.482;2022-12-11T04:48:49;100370.91;;;1.94;71.79
4981;BME280;2507;50.392;7.482;2022-12-11T04:51:15;100358.72;;;1.97;71.14
4981;BME280;2507;50.392;7.482;2022-12-11T04:53:40;100360.03;;;1.86;71.48
4981;BME280;2507;50.392;7.482;2022-12-11T04:56:07;100367.25;;;1.99;71.53
4981;BME280;2507;50.392;7.482;2022-12-11T04:58:33;100364.13;;;2.33;70.62
4981;BME280;2507;50.392;7.482;2022-12-11T05:01:00;100373.91;;;2.27;69.61
4981;BME280;2507;50.392;7.482;2022-12-11T05:03:25;100365.91;;;2.11;69.97
4981;BME280;2507;50.392;7.482;2022-12-11T05:05:52;100365.53;;;2.20;69.77
4981;BME280;2507;50.392;7.482;2022-12-11T05:08:18;100368.47;;;2.53;69.45
4981;BME280;2507;50.392;7.482;2022-12-11T05:10:54;100365.31;;;2.46;68.72
4981;BME280;2507;50.392;7.482;2022-12-11T05:13:19;100355.84;;;2.25;68.96
4981;BME280;2507;50.392;7.482;2022-12-11T05:15:44;100352.94;;;2.13;69.68
4981;BME280;2507;50.392;7.482;2022-12-11T05:18:10;100342.19;;;2.22;70.76
4981;BME280;2507;50.392;7.482;2022-12-11T05:20:35;100352.38;;;2.46;69.28
4981;BME280;2507;50.392;7.482;2022-12-11T05:23:00;100348.75;;;2.50;68.72
4981;BME280;2507;50.392;7.482;2022-12-11T05:25:25;100355.59;;;2.51;68.99
4981;BME280;2507;50.392;7.482;2022-12-11T05:27:51;100350.16;;;2.57;68.58
4981;BME280;2507;50.392;7.482;2022-12-11T05:30:16;100353.69;;;2.56;68.61
4981;BME280;2507;50.392;7.482;2022-12-11T05:32:41;100349.13;;;2.41;68.81
4981;BME280;2507;50.392;7.482;2022-12-11T05:35:06;100359.09;;;2.30;68.99
4981;BME280;2507;50.392;7.482;2022-12-11T05:37:32;100356.97;;;2.40;69.43
4981;BME280;2507;50.392;7.482;2022-12-11T05:39:58;100362.47;;;2.52;68.85
4981;BME280;2507;50.392;7.482;2022-12-11T05:42:23;100357.69;;;2.43;69.00
4981;BME280;2507;50.392;7.482;2022-12-11T05:44:49;100353.00;;;2.51;69.19
4981;BME280;2507;50.392;7.482;2022-12-11T05:47:14;100346.94;;;2.72;68.69
4981;BME280;2507;50.392;7.482;2022-12-11T05:49:39;100340.59;;;2.79;67.54
4981;BME280;2507;50.392;7.482;2022-12-11T05:52:05;100335.66;;;2.73;67.61
4981;BME280;2507;50.392;7.482;2022-12-11T05:54:30;100335.91;;;2.67;67.78
4981;BME280;2507;50.392;7.482;2022-12-11T05:56:55;100340.44;;;2.62;67.30
4981;BME280;2507;50.392;7.482;2022-12-11T05:59:20;100329.97;;;2.45;68.38
4981;BME280;2507;50.392;7.482;2022-12-11T06:01:46;100337.09;;;2.60;69.01
4981;BME280;2507;50.392;7.482;2022-12-11T06:04:11;100331.50;;;2.49;68.05
4981;BME280;2507;50.392;7.482;2022-12-11T06:06:37;100333.38;;;2.26;69.21
4981;BME280;2507;50.392;7.482;2022-12-11T06:09:03;100337.72;;;2.05;70.00
4981;BME280;2507;50.392;7.482;2022-12-11T06:11:32;100332.59;;;1.82;71.38
4981;BME280;2507;50.392;7.482;2022-12-11T06:14:00;100348.59;;;1.70;72.15
4981;BME280;2507;50.392;7.482;2022-12-11T06:16:25;100330.56;;;1.68;72.69
4981;BME280;2507;50.392;7.482;2022-12-11T06:18:51;100369.28;;;1.70;72.87
4981;BME280;2507;50.392;7.482;2022-12-11T06:23:45;100330.41;;;1.93;72.02
4981;BME280;2507;50.392;7.482;2022-12-11T06:26:11;100326.72;;;2.00;71.64
4981;BME280;2507;50.392;7.482;2022-12-11T06:28:37;100334.56;;;1.97;71.87
4981;BME280;2507;50.392;7.482;2022-12-11T06:31:03;100319.78;;;2.21;71.41
4981;BME280;2507;50.392;7.482;2022-12-11T06:33:29;100321.22;;;2.28;71.25
4981;BME280;2507;50.392;7.482;2022-12-11T06:35:55;100322.78;;;2.32;70.68
4981;BME280;2507;50.392;7.482;2022-12-11T06:38:21;100323.88;;;2.26;70.57
4981;BME280;2507;50.392;7.482;2022-12-11T06:40:56;100319.72;;;2.22;70.14
4981;BME280;2507;50.392;7.482;2022-12-11T06:43:22;100325.22;;;2.15;70.18
4981;BME280;2507;50.392;7.482;2022-12-11T06:45:48;100354.72;;;2.11;70.83
4981;BME280;2507;50.392;7.482;2022-12-11T06:48:13;100332.00;;;1.97;71.29
4981;BME280;2507;50.392;7.482;2022-12-11T06:50:38;100334.19;;;2.06;71.57
4981;BME280;2507;50.392;7.482;2022-12-11T06:53:03;100332.47;;;2.06;71.18
4981;BME280;2507;50.392;7.482;2022-12-11T06:55:29;100330.91;;;2.02;71.33
4981;BME280;2507;50.392;7.482;2022-12-11T06:57:54;100331.25;;;2.15;71.58
4981;BME280;2507;50.392;7.482;2022-12-11T07:00:19;100324.81;;;2.25;70.29
4981;BME280;2507;50.392;7.482;2022-12-11T07:02:45;100323.56;;;1.92;70.65
4981;BME280;2507;50.392;7.482;2022-12-11T07:05:10;100326.97;;;1.51;72.02
4981;BME280;2507;50.392;7.482;2022-12-11T07:07:35;100335.06;;;1.19;73.60
4981;BME280;2507;50.392;7.482;2022-12-11T07:10:01;100323.41;;;1.09;74.68
4981;BME280;2507;50.392;7.482;2022-12-11T07:12:26;100330.41;;;1.28;74.95
4981;BME280;2507;50.392;7.482;2022-12-11T07:14:51;100324.13;;;1.57;74.25
4981;BME280;2507;50.392;7.482;2022-12-11T07:17:17;100323.09;;;1.61;73.92
4981;BME280;2507;50.392;7.482;2022-12-11T07:19:42;100328.50;;;1.55;73.59
4981;BME280;2507;50.392;7.482;2022-12-11T07:22:07;100322.44;;;1.56;74.32
4981;BME280;2507;50.392;7.482;2022-12-11T07:24:32;100325.38;;;1.47;73.97
4981;BME280;2507;50.392;7.482;2022-12-11T07:26:58;100322.59;;;1.30;74.83
4981;BME280;2507;50.392;7.482;2022-12-11T07:29:23;100334.44;;;1.35;75.43
4981;BME280;2507;50.392;7.482;2022-12-11T07:31:48;100340.63;;;1.53;74.71
4981;BME280;2507;50.392;7.482;2022-12-11T07:34:14;100344.63;;;1.61;74.51
4981;BME280;2507;50.392;7.482;2022-12-11T07:36:40;100329.22;;;1.58;74.02
4981;BME280;2507;50.392;7.482;2022-12-11T07:39:05;100347.72;;;1.71;74.49
4981;BME280;2507;50.392;7.482;2022-12-11T07:41:31;100331.41;;;1.90;74.36
4981;BME280;2507;50.392;7.482;2022-12-11T07:43:58;100334.19;;;2.06;73.55
4981;BME280;2507;50.392;7.482;2022-12-11T07:46:26;100336.69;;;2.09;74.19
4981;BME280;2507;50.392;7.482;2022-12-11T07:48:52;100340.41;;;2.24;74.17
4981;BME280;2507;50.392;7.482;2022-12-11T07:51:20;100329.66;;;2.33;73.53
4981;BME280;2507;50.392;7.482;2022-12-11T07:53:51;100326.63;;;2.43;72.95
4981;BME280;2507;50.392;7.482;2022-12-11T07:56:17;100335.34;;;2.61;73.18
4981;BME280;2507;50.392;7.482;2022-12-11T07:58:42;100328.09;;;2.69;72.29
4981;BME280;2507;50.392;7.482;2022-12-11T08:01:12;100327.19;;;2.70;71.94
4981;BME280;2507;50.392;7.482;2022-12-11T08:03:38;100334.81;;;2.73;72.15
4981;BME280;2507;50.392;7.482;2022-12-11T08:06:04;100357.16;;;2.75;71.55
4981;BME280;2507;50.392;7.482;2022-12-11T08:08:29;100324.63;;;2.88;71.12
4981;BME280;2507;50.392;7.482;2022-12-11T08:10:54;100336.88;;;2.85;70.54
4981;BME280;2507;50.392;7.482;2022-12-11T08:13:20;100335.16;;;2.85;70.15
4981;BME280;2507;50.392;7.482;2022-12-11T08:15:45;100333.53;;;2.63;69.85
4981;BME280;2507;50.392;7.482;2022-12-11T08:18:10;100344.78;;;2.22;71.39
4981;BME280;2507;50.392;7.482;2022-12-11T08:20:38;100341.56;;;1.95;72.43
4981;BME280;2507;50.392;7.482;2022-12-11T08:23:04;100339.22;;;1.89;73.64
4981;BME280;2507;50.392;7.482;2022-12-11T08:25:29;100340.94;;;2.10;72.85
4981;BME280;2507;50.392;7.482;2022-12-11T08:27:54;100342.06;;;2.25;72.62
4981;BME280;2507;50.392;7.482;2022-12-11T08:30:20;100338.63;;;2.24;72.78
4981;BME280;2507;50.392;7.482;2022-12-11T08:32:45;100329.84;;;2.48;73.28
4981;BME280;2507;50.392;7.482;2022-12-11T08:35:10;100325.16;;;2.76;72.35
4981;BME280;2507;50.392;7.482;2022-12-11T08:37:35;100331.38;;;3.11;69.95
4981;BME280;2507;50.392;7.482;2022-12-11T08:40:01;100321.31;;;3.24;69.29
4981;BME280;2507;50.392;7.482;2022-12-11T08:42:26;100323.69;;;3.28;68.82
4981;BME280;2507;50.392;7.482;2022-12-11T08:44:51;100334.06;;;3.28;68.47
4981;BME280;2507;50.392;7.482;2022-12-11T08:47:17;100354.69;;;3.11;68.58
4981;BME280;2507;50.392;7.482;2022-12-11T08:49:42;100348.44;;;2.96;69.21
4981;BME280;2507;50.392;7.482;2022-12-11T08:52:08;100339.91;;;3.13;69.88
4981;BME280;2507;50.392;7.482;2022-12-11T08:54:33;100338.38;;;3.28;68.69
4981;BME280;2507;50.392;7.482;2022-12-11T08:57:00;100337.56;;;3.46;68.88
4981;BME280;2507;50.392;7.482;2022-12-11T08:59:25;100329.75;;;3.64;68.27
4981;BME280;2507;50.392;7.482;2022-12-11T09:01:51;100324.06;;;3.75;67.31
4981;BME280;2507;50.392;7.482;2022-12-11T09:04:16;100324.59;;;3.46;67.44
4981;BME280;2507;50.392;7.482;2022-12-11T09:06:41;100328.38;;;3.39;68.04
4981;BME280;2507;50.392;7.482;2022-12-11T09:09:07;100321.94;;;3.29;67.97
4981;BME280;2507;50.392;7.482;2022-12-11T09:11:34;100323.81;;;3.06;69.06
4981;BME280;2507;50.392;7.482;2022-12-11T09:14:01;100343.84;;;3.03;69.87
4981;BME280;2507;50.392;7.482;2022-12-11T09:16:27;100338.53;;;3.25;69.85
4981;BME280;2507;50.392;7.482;2022-12-11T09:18:54;100344.63;;;3.05;69.54
4981;BME280;2507;50.392;7.482;2022-12-11T09:21:22;100335.78;;;2.90;70.88
4981;BME280;2507;50.392;7.482;2022-12-11T09:23:48;100333.75;;;2.97;70.33
4981;BME280;2507;50.392;7.482;2022-12-11T09:26:17;100327.91;;;3.31;70.71
4981;BME280;2507;50.392;7.482;2022-12-11T09:28:43;100330.19;;;3.55;69.55
4981;BME280;2507;50.392;7.482;2022-12-11T09:31:10;100325.78;;;3.93;67.50
4981;BME280;2507;50.392;7.482;2022-12-11T09:33:36;100336.69;;;3.64;67.08
4981;BME280;2507;50.392;7.482;2022-12-11T09:36:02;100328.53;;;3.36;68.78
4981;BME280;2507;50.392;7.482;2022-12-11T09:38:28;100324.31;;;3.52;68.86
4981;BME280;2507;50.392;7.482;2022-12-11T09:40:54;100329.72;;;3.47;68.72
4981;BME280;2507;50.392;7.482;2022-12-11T09:43:42;100326.00;;;3.34;69.38
4981;BME280;2507;50.392;7.482;2022-12-11T09:46:13;100327.19;;;3.27;69.92
4981;BME280;2507;50.392;7.482;2022-12-11T09:48:41;100337.09;;;3.38;70.30
4981;BME280;2507;50.392;7.482;2022-12-11T09:51:29;100325.59;;;3.79;69.03
4981;BME280;2507;50.392;7.482;2022-12-11T09:54:00;100326.19;;;3.67;68.03
4981;BME280;2507;50.392;7.482;2022-12-11T09:56:40;100322.28;;;3.94;68.88
4981;BME280;2507;50.392;7.482;2022-12-11T10:02:24;100314.50;;;4.11;66.97
4981;BME280;2507;50.392;7.482;2022-12-11T10:05:07;100310.53;;;4.04;67.20
4981;BME280;2507;50.392;7.482;2022-12-11T10:07:45;100319.47;;;4.15;67.32
4981;BME280;2507;50.392;7.482;2022-12-11T10:10:24;100313.72;;;3.92;67.23
4981;BME280;2507;50.392;7.482;2022-12-11T10:13:15;100297.66;;;3.67;68.34
4981;BME280;2507;50.392;7.482;2022-12-11T10:18:23;100300.84;;;3.36;69.44
4981;BME280;2507;50.392;7.482;2022-12-11T10:20:51;100290.94;;;3.44;69.63
4981;BME280;2507;50.392;7.482;2022-12-11T10:23:19;100294.31;;;3.82;69.18
4981;BME280;2507;50.392;7.482;2022-12-11T10:26:03;100287.63;;;4.12;68.05
4981;BME280;2507;50.392;7.482;2022-12-11T10:28:29;100287.03;;;4.07;68.33
4981;BME280;2507;50.392;7.482;2022-12-11T10:33:40;100280.44;;;3.83;68.91
4981;BME280;2507;50.392;7.482;2022-12-11T10:36:11;100273.50;;;4.18;68.44
4981;BME280;2507;50.392;7.482;2022-12-11T10:38:42;100271.00;;;3.99;68.64
4981;BME280;2507;50.392;7.482;2022-12-11T10:41:23;100288.50;;;3.77;68.78
4981;BME280;2507;50.392;7.482;2022-12-11T10:43:56;100274.47;;;3.81;69.36
4981;BME280;2507;50.392;7.482;2022-12-11T10:46:25;100281.97;;;3.87;69.21
4981;BME280;2507;50.392;7.482;2022-12-11T10:48:57;100268.38;;;3.82;68.89
4981;BME280;2507;50.392;7.482;2022-12-11T10:51:25;100264.72;;;4.03;69.68
4981;BME280;2507;50.392;7.482;2022-12-11T10:54:16;100260.97;;;4.75;67.74
4981;BME280;2507;50.392;7.482;2022-12-11T10:56:45;100256.81;;;4.88;65.26
4981;BME280;2507;50.392;7.482;2022-12-11T10:59:39;100257.03;;;4.68;65.21
4981;BME280;2507;50.392;7.482;2022-12-11T11:02:35;100250.78;;;4.55;66.07
4981;BME280;2507;50.392;7.482;2022-12-11T11:05:13;100251.03;;;4.51;66.84
4981;BME280;2507;50.392;7.482;2022-12-11T11:07:39;100250.66;;;4.41;66.42
4981;BME280;2507;50.392;7.482;2022-12-11T11:12:44;100249.59;;;4.45;66.09
4981;BME280;2507;50.392;7.482;2022-12-11T11:15:16;100238.91;;;4.67;65.89
4981;BME280;2507;50.392;7.482;2022-12-11T11:17:48;100235.34;;;5.00;65.87
4981;BME280;2507;50.392;7.482;2022-12-11T11:20:17;100238.72;;;5.18;64.54
4981;BME280;2507;50.392;7.482;2022-12-11T11:22:45;100252.72;;;5.47;63.39
4981;BME280;2507;50.392;7.482;2022-12-11T11:25:17;100247.53;;;5.47;62.70
4981;BME280;2507;50.392;7.482;2022-12-11T11:27:47;100244.59;;;5.82;61.50
4981;BME280;2507;50.392;7.482;2022-12-11T11:30:37;100239.13;;;5.26;62.35
4981;BME280;2507;50.392;7.482;2022-12-11T11:33:11;100238.31;;;4.94;63.79
4981;BME280;2507;50.392;7.482;2022-12-11T11:35:37;100235.09;;;5.20;63.68
4981;BME280;2507;50.392;7.482;2022-12-11T11:38:16;100230.66;;;4.91;63.64
4981;BME280;2507;50.392;7.482;2022-12-11T11:40:48;100227.50;;;4.69;64.66
4981;BME280;2507;50.392;7.482;2022-12-11T11:43:45;100223.03;;;5.19;63.40
4981;BME280;2507;50.392;7.482;2022-12-11T11:46:41;100225.13;;;5.29;63.21
4981;BME280;2507;50.392;7.482;2022-12-11T11:49:21;100218.72;;;4.87;64.18
4981;BME280;2507;50.392;7.482;2022-12-11T11:52:10;100222.31;;;4.69;64.84
4981;BME280;2507;50.392;7.482;2022-12-11T11:54:44;100224.16;;;4.67;64.96
4981;BME280;2507;50.392;7.482;2022-12-11T11:57:27;100217.78;;;4.57;65.09
4981;BME280;2507;50.392;7.482;2022-12-11T12:00:00;100225.25;;;4.63;65.41
4981;BME280;2507;50.392;7.482;2022-12-11T12:02:34;100221.03;;;4.45;65.39
4981;BME280;2507;50.392;7.482;2022-12-11T12:04:59;100219.41;;;4.43;65.97
4981;BME280;2507;50.392;7.482;2022-12-11T12:07:37;100210.94;;;4.39;66.53
4981;BME280;2507;50.392;7.482;2022-12-11T12:10:15;100220.06;;;4.31;66.22
4981;BME280;2507;50.392;7.482;2022-12-11T12:12:56;100219.31;;;4.44;66.66
4981;BME280;2507;50.392;7.482;2022-12-11T12:15:42;100216.78;;;4.27;66.78
4981;BME280;2507;50.392;7.482;2022-12-11T12:20:53;100212.38;;;4.45;66.02
4981;BME280;2507;50.392;7.482;2022-12-11T12:23:24;100193.16;;;4.64;64.96
4981;BME280;2507;50.392;7.482;2022-12-11T12:26:25;100193.00;;;4.98;64.27
4981;BME280;2507;50.392;7.482;2022-12-11T12:34:20;100199.88;;;4.84;63.56
4981;BME280;2507;50.392;7.482;2022-12-11T12:40:09;100192.72;;;4.56;64.25
4981;BME280;2507;50.392;7.482;2022-12-11T12:43:00;100182.66;;;4.50;65.13
4981;BME280;2507;50.392;7.482;2022-12-11T12:48:23;100187.59;;;4.55;64.69
4981;BME280;2507;50.392;7.482;2022-12-11T12:50:49;100183.91;;;4.43;65.20
4981;BME280;2507;50.392;7.482;2022-12-11T12:53:18;100179.88;;;4.53;65.47
4981;BME280;2507;50.392;7.482;2022-12-11T12:55:45;100180.34;;;4.77;64.71
4981;BME280;2507;50.392;7.482;2022-12-11T13:01:23;100173.88;;;4.68;63.80
4981;BME280;2507;50.392;7.482;2022-12-11T13:03:54;100175.72;;;4.51;64.51
4981;BME280;2507;50.392;7.482;2022-12-11T13:06:30;100175.16;;;4.44;65.96
4981;BME280;2507;50.392;7.482;2022-12-11T13:08:56;100177.25;;;5.01;64.21
4981;BME280;2507;50.392;7.482;2022-12-11T13:11:31;100177.91;;;5.20;62.88
4981;BME280;2507;50.392;7.482;2022-12-11T13:14:04;100173.63;;;5.19;61.91
4981;BME280;2507;50.392;7.482;2022-12-11T13:16:40;100179.31;;;5.26;61.62
4981;BME280;2507;50.392;7.482;2022-12-11T13:24:32;100177.66;;;5.25;61.11
4981;BME280;2507;50.392;7.482;2022-12-11T13:27:21;100186.97;;;5.13;61.81
4981;BME280;2507;50.392;7.482;2022-12-11T13:29:47;100215.66;;;5.43;61.15
4981;BME280;2507;50.392;7.482;2022-12-11T13:34:43;100193.13;;;5.58;59.85
4981;BME280;2507;50.392;7.482;2022-12-11T13:39:54;100206.47;;;5.52;59.31
4981;BME280;2507;50.392;7.482;2022-12-11T13:42:26;100209.78;;;5.40;59.83
4981;BME280;2507;50.392;7.482;2022-12-11T13:44:53;100209.44;;;5.30;59.83
4981;BME280;2507;50.392;7.482;2022-12-11T13:47:19;100214.06;;;5.25;60.33
4981;BME280;2507;50.392;7.482;2022-12-11T13:49:48;100219.50;;;5.20;61.24
4981;BME280;2507;50.392;7.482;2022-12-11T13:52:18;100218.00;;;5.16;60.62
4981;BME280;2507;50.392;7.482;2022-12-11T13:54:49;100204.72;;;5.05;61.02
4981;BME280;2507;50.392;7.482;2022-12-11T13:57:17;100207.19;;;5.08;61.15
4981;BME280;2507;50.392;7.482;2022-12-11T13:59:53;100207.94;;;5.10;61.13
4981;BME280;2507;50.392;7.482;2022-12-11T14:04:58;100218.00;;;4.85;61.78
4981;BME280;2507;50.392;7.482;2022-12-11T14:07:32;100213.28;;;4.76;62.41
4981;BME280;2507;50.392;7.482;2022-12-11T14:10:03;100215.72;;;4.79;61.92
4981;BME280;2507;50.392;7.482;2022-12-11T14:12:30;100226.78;;;4.83;61.75
4981;BME280;2507;50.392;7.482;2022-12-11T14:14:58;100223.53;;;4.95;61.86
4981;BME280;2507;50.392;7.482;2022-12-11T14:17:28;100221.00;;;4.93;61.69
4981;BME280;2507;50.392;7.482;2022-12-11T14:19:57;100218.22;;;4.81;61.71
4981;BME280;2507;50.392;7.482;2022-12-11T14:22:25;100225.19;;;4.80;62.47
4981;BME280;2507;50.392;7.482;2022-12-11T14:24:56;100214.66;;;4.83;61.57
4981;BME280;2507;50.392;7.482;2022-12-11T14:27:23;100225.94;;;4.82;62.39